createdAt,value
2023-01-08T00:01:08.726Z,1.80
2023-01-08T00:03:36.053Z,1.70
2023-01-08T00:06:03.596Z,1.80
2023-01-08T00:08:32.309Z,1.90
2023-01-08T00:10:59.459Z,1.60
2023-01-08T00:13:26.792Z,1.77
2023-01-08T00:15:53.950Z,1.90
2023-01-08T00:18:21.119Z,1.60
2023-01-08T00:20:48.433Z,1.70
2023-01-08T00:23:16.342Z,2.00
2023-01-08T00:25:44.932Z,1.93
2023-01-08T00:28:12.175Z,1.63
2023-01-08T00:30:39.370Z,1.90
2023-01-08T00:33:07.265Z,2.50
2023-01-08T00:35:34.385Z,1.80
2023-01-08T00:38:01.515Z,1.87
2023-01-08T00:40:28.678Z,1.77
2023-01-08T00:42:57.290Z,1.60
2023-01-08T00:45:24.447Z,1.80
2023-01-08T00:47:51.639Z,1.97
2023-01-08T00:50:18.799Z,1.83
2023-01-08T00:52:45.908Z,1.80
2023-01-08T00:55:13.129Z,1.90
2023-01-08T00:57:40.468Z,1.80
2023-01-08T01:00:10.192Z,2.03
2023-01-08T01:02:37.400Z,1.63
2023-01-08T01:05:05.185Z,1.97
2023-01-08T01:07:32.579Z,1.90
2023-01-08T01:09:59.687Z,1.73
2023-01-08T01:12:26.853Z,1.73
2023-01-08T01:14:53.954Z,2.00
2023-01-08T01:17:22.419Z,1.73
2023-01-08T01:19:49.515Z,2.07
2023-01-08T01:22:16.644Z,1.90
2023-01-08T01:24:43.748Z,2.40
2023-01-08T01:27:10.859Z,2.37
2023-01-08T01:29:37.997Z,2.13
2023-01-08T01:32:05.331Z,1.80
2023-01-08T01:34:33.954Z,1.90
2023-01-08T01:37:01.062Z,1.93
2023-01-08T01:39:28.279Z,1.87
2023-01-08T01:41:55.381Z,2.37
2023-01-08T01:44:36.873Z,1.83
2023-01-08T01:47:06.546Z,2.13
2023-01-08T01:49:35.190Z,2.40
2023-01-08T01:52:03.479Z,1.97
2023-01-08T01:54:32.133Z,2.50
2023-01-08T01:57:00.268Z,2.00
2023-01-08T01:59:27.598Z,1.83
2023-01-08T02:01:54.903Z,2.03
2023-01-08T02:04:22.188Z,2.47
2023-01-08T02:06:56.146Z,2.60
2023-01-08T02:09:26.303Z,2.40
2023-01-08T02:11:56.260Z,2.23
2023-01-08T02:14:26.129Z,2.10
2023-01-08T02:16:55.942Z,2.80
2023-01-08T02:19:37.251Z,2.60
2023-01-08T02:22:12.634Z,1.93
2023-01-08T02:24:43.728Z,2.30
2023-01-08T02:27:13.743Z,2.30
2023-01-08T02:29:41.511Z,2.60
2023-01-08T02:32:08.640Z,2.40
2023-01-08T02:34:35.734Z,2.47
2023-01-08T02:37:03.020Z,2.40
2023-01-08T02:39:36.423Z,2.40
2023-01-08T02:42:09.790Z,2.13
2023-01-08T02:44:46.050Z,2.50
2023-01-08T02:47:18.726Z,2.37
2023-01-08T02:49:47.736Z,2.90
2023-01-08T02:52:16.065Z,2.50
2023-01-08T02:54:43.704Z,2.30
2023-01-08T02:57:12.588Z,2.20
2023-01-08T02:59:43.503Z,2.10
2023-01-08T03:02:11.392Z,2.23
2023-01-08T03:04:40.606Z,3.07
2023-01-08T03:07:07.774Z,2.60
2023-01-08T03:09:35.455Z,3.07
2023-01-08T03:12:05.120Z,2.17
2023-01-08T03:14:35.540Z,2.83
2023-01-08T03:17:06.107Z,2.50
2023-01-08T03:19:36.104Z,2.67
2023-01-08T03:22:04.142Z,2.90
2023-01-08T03:24:33.950Z,2.40
2023-01-08T03:27:03.293Z,2.70
2023-01-08T03:29:30.996Z,2.47
2023-01-08T03:31:59.338Z,2.50
2023-01-08T03:34:29.041Z,2.43
2023-01-08T03:36:58.035Z,2.70
2023-01-08T03:39:26.619Z,2.80
2023-01-08T03:41:54.977Z,2.63
2023-01-08T03:44:22.111Z,3.17
2023-01-08T03:46:51.682Z,3.20
2023-01-08T03:49:19.360Z,2.83
2023-01-08T03:51:48.046Z,3.23
2023-01-08T03:54:15.969Z,2.60
2023-01-08T03:56:43.118Z,3.00
2023-01-08T03:59:11.290Z,2.80
2023-01-08T04:01:38.505Z,2.40
2023-01-08T04:04:06.091Z,2.73
2023-01-08T04:06:33.295Z,2.50
2023-01-08T04:09:01.752Z,3.30
2023-01-08T04:11:28.958Z,2.97
2023-01-08T04:13:56.045Z,2.27
2023-01-08T04:16:23.258Z,2.97
2023-01-08T04:18:50.363Z,4.13
2023-01-08T04:21:17.501Z,2.20
2023-01-08T04:23:44.614Z,2.67
2023-01-08T04:26:13.111Z,2.73
2023-01-08T04:28:40.231Z,2.37
2023-01-08T04:31:07.866Z,2.30
2023-01-08T04:33:35.225Z,2.13
2023-01-08T04:36:02.325Z,2.07
2023-01-08T04:38:29.428Z,2.50
2023-01-08T04:40:57.129Z,2.10
2023-01-08T04:43:25.829Z,2.70
2023-01-08T04:45:52.989Z,2.07
2023-01-08T04:48:20.142Z,1.97
2023-01-08T04:50:47.298Z,2.40
2023-01-08T04:53:14.389Z,2.47
2023-01-08T04:55:41.558Z,2.07
2023-01-08T04:58:08.774Z,2.13
2023-01-08T05:00:37.362Z,2.10
2023-01-08T05:03:04.527Z,2.13
2023-01-08T05:05:31.675Z,1.80
2023-01-08T05:07:59.203Z,2.30
2023-01-08T05:10:26.376Z,1.63
2023-01-08T05:12:53.506Z,1.77
2023-01-08T05:15:20.639Z,1.50
2023-01-08T05:17:49.122Z,1.60
2023-01-08T05:20:17.920Z,1.50
2023-01-08T05:22:46.042Z,1.63
2023-01-08T05:25:13.175Z,1.67
2023-01-08T05:27:40.306Z,1.70
2023-01-08T05:30:08.224Z,1.60
2023-01-08T05:32:35.345Z,1.20
2023-01-08T05:35:03.989Z,1.43
2023-01-08T05:37:31.099Z,1.30
2023-01-08T05:39:58.283Z,1.60
2023-01-08T05:42:25.435Z,1.60
2023-01-08T05:44:52.551Z,1.40
2023-01-08T05:47:19.633Z,2.10
2023-01-08T05:49:46.769Z,1.63
2023-01-08T05:52:15.217Z,1.40
2023-01-08T05:54:42.331Z,1.17
2023-01-08T05:57:09.430Z,1.10
2023-01-08T05:59:36.558Z,1.73
2023-01-08T06:02:03.767Z,1.33
2023-01-08T06:04:30.940Z,1.60
2023-01-08T06:06:58.133Z,1.40
2023-01-08T06:09:26.586Z,1.50
2023-01-08T06:11:53.753Z,1.70
2023-01-08T06:14:20.855Z,1.47
2023-01-08T06:16:48.047Z,1.30
2023-01-08T06:19:15.141Z,1.13
2023-01-08T06:21:42.669Z,1.23
2023-01-08T06:24:09.840Z,1.10
2023-01-08T06:26:38.331Z,1.40
2023-01-08T06:29:05.479Z,1.30
2023-01-08T06:31:32.634Z,1.30
2023-01-08T06:33:59.801Z,1.20
2023-01-08T06:36:26.935Z,1.10
2023-01-08T06:38:54.049Z,1.10
2023-01-08T06:41:21.146Z,1.30
2023-01-08T06:43:49.650Z,1.30
2023-01-08T06:46:16.761Z,1.10
2023-01-08T06:48:43.888Z,1.40
2023-01-08T06:51:11.115Z,1.27
2023-01-08T06:53:38.229Z,1.20
2023-01-08T06:56:05.629Z,1.30
2023-01-08T06:58:32.830Z,1.47
2023-01-08T07:01:01.514Z,1.17
2023-01-08T07:03:28.724Z,1.60
2023-01-08T07:05:55.859Z,0.90
2023-01-08T07:08:23.015Z,1.07
2023-01-08T07:10:50.143Z,1.00
2023-01-08T07:13:17.275Z,1.17
2023-01-08T07:15:44.445Z,1.17
2023-01-08T07:18:12.974Z,0.90
2023-01-08T07:20:40.166Z,1.20
2023-01-08T07:23:08.057Z,1.00
2023-01-08T07:25:35.288Z,1.00
2023-01-08T07:28:02.460Z,0.80
2023-01-08T07:30:30.834Z,1.00
2023-01-08T07:32:58.831Z,0.80
2023-01-08T07:35:27.271Z,1.20
2023-01-08T07:37:54.459Z,1.27
2023-01-08T07:40:21.600Z,1.40
2023-01-08T07:42:48.693Z,1.13
2023-01-08T07:45:15.840Z,1.23
2023-01-08T07:47:42.963Z,1.10
2023-01-08T07:50:10.367Z,0.90
2023-01-08T07:52:38.825Z,1.10
2023-01-08T07:55:06.178Z,1.23
2023-01-08T07:57:33.301Z,1.10
2023-01-08T08:00:00.430Z,1.13
2023-01-08T08:02:27.702Z,1.30
2023-01-08T08:04:54.948Z,1.10
2023-01-08T08:07:22.028Z,1.20
2023-01-08T08:09:50.485Z,1.17
2023-01-08T08:12:17.622Z,1.00
2023-01-08T08:14:44.756Z,0.93
2023-01-08T08:17:11.890Z,1.23
2023-01-08T08:19:38.982Z,1.43
2023-01-08T08:22:06.097Z,1.57
2023-01-08T08:24:33.229Z,1.23
2023-01-08T08:27:01.696Z,1.33
2023-01-08T08:29:28.806Z,1.67
2023-01-08T08:31:55.908Z,1.67
2023-01-08T08:34:23.176Z,2.33
2023-01-08T08:36:50.311Z,2.03
2023-01-08T08:39:17.428Z,1.73
2023-01-08T08:41:44.551Z,2.00
2023-01-08T08:44:12.993Z,1.70
2023-01-08T08:46:40.181Z,2.17
2023-01-08T08:49:07.300Z,2.07
2023-01-08T08:51:34.411Z,1.90
2023-01-08T08:54:01.563Z,1.50
2023-01-08T08:56:28.714Z,1.53
2023-01-08T08:58:55.842Z,1.20
2023-01-08T09:01:24.371Z,3.00
2023-01-08T09:03:51.555Z,1.50
2023-01-08T09:06:18.638Z,1.20
2023-01-08T09:08:45.745Z,2.00
2023-01-08T09:11:14.383Z,1.90
2023-01-08T09:13:41.725Z,1.97
2023-01-08T09:16:08.951Z,2.03
2023-01-08T09:18:37.447Z,1.87
2023-01-08T09:21:05.211Z,1.90
2023-01-08T09:23:32.337Z,2.00
2023-01-08T09:25:59.942Z,1.90
2023-01-08T09:28:27.108Z,1.80
2023-01-08T09:30:54.444Z,2.17
2023-01-08T09:33:21.588Z,1.50
2023-01-08T09:35:50.066Z,2.13
2023-01-08T09:38:17.204Z,1.90
2023-01-08T09:40:46.931Z,1.70
2023-01-08T09:43:17.494Z,1.37
2023-01-08T09:45:46.364Z,1.63
2023-01-08T09:48:14.713Z,2.07
2023-01-08T09:50:41.847Z,1.60
2023-01-08T09:53:12.955Z,2.40
2023-01-08T09:55:40.352Z,2.00
2023-01-08T09:58:24.780Z,2.20
2023-01-08T10:00:52.015Z,1.63
2023-01-08T10:03:19.258Z,1.40
2023-01-08T10:05:46.385Z,1.53
2023-01-08T10:08:15.695Z,1.10
2023-01-08T10:10:44.112Z,1.60
2023-01-08T10:13:12.128Z,1.27
2023-01-08T10:15:40.070Z,1.30
2023-01-08T10:18:08.204Z,1.60
2023-01-08T10:20:35.340Z,1.13
2023-01-08T10:23:09.620Z,1.10
2023-01-08T10:25:47.814Z,1.10
2023-01-08T10:28:19.218Z,1.20
2023-01-08T10:30:47.298Z,1.43
2023-01-08T10:33:18.717Z,1.30
2023-01-08T10:35:51.851Z,1.50
2023-01-08T10:38:25.343Z,1.60
2023-01-08T10:40:53.896Z,1.30
2023-01-08T10:43:22.439Z,1.77
2023-01-08T10:45:56.039Z,1.27
2023-01-08T10:48:23.944Z,1.20
2023-01-08T10:50:51.081Z,1.20
2023-01-08T10:53:25.212Z,1.17
2023-01-08T10:56:00.024Z,1.30
2023-01-08T10:58:28.010Z,1.73
2023-01-08T11:00:55.223Z,1.10
2023-01-08T11:03:27.261Z,2.40
2023-01-08T11:05:54.453Z,1.60
2023-01-08T11:08:23.310Z,1.30
2023-01-08T11:10:54.769Z,1.20
2023-01-08T11:13:23.582Z,1.33
2023-01-08T11:16:00.100Z,1.57
2023-01-08T11:18:28.279Z,1.43
2023-01-08T11:21:07.046Z,1.30
2023-01-08T11:23:34.204Z,2.23
2023-01-08T11:26:04.915Z,1.20
2023-01-08T11:28:39.820Z,1.00
2023-01-08T11:31:12.367Z,2.07
2023-01-08T11:33:40.050Z,1.20
2023-01-08T11:36:13.644Z,1.40
2023-01-08T11:38:42.008Z,1.70
2023-01-08T11:41:18.139Z,1.20
2023-01-08T11:43:55.290Z,1.20
2023-01-08T11:46:28.579Z,1.70
2023-01-08T11:49:04.012Z,1.23
2023-01-08T11:51:37.724Z,1.30
2023-01-08T11:54:07.907Z,1.20
2023-01-08T11:56:45.327Z,1.10
2023-01-08T11:59:18.737Z,1.60
2023-01-08T12:01:54.279Z,1.00
2023-01-08T12:04:33.555Z,1.07
2023-01-08T12:07:04.044Z,1.47
2023-01-08T12:09:36.355Z,1.00
2023-01-08T12:12:06.268Z,1.53
2023-01-08T12:14:39.150Z,1.10
2023-01-08T12:17:16.611Z,1.30
2023-01-08T12:19:52.651Z,0.80
2023-01-08T12:22:26.671Z,1.00
2023-01-08T12:25:01.630Z,1.00
2023-01-08T12:27:55.886Z,0.90
2023-01-08T12:30:26.485Z,0.87
2023-01-08T12:32:56.592Z,0.90
2023-01-08T12:35:25.464Z,1.20
2023-01-08T12:37:53.489Z,0.80
2023-01-08T12:40:22.661Z,1.00
2023-01-08T12:43:00.233Z,0.80
2023-01-08T12:45:29.773Z,1.10
2023-01-08T12:47:59.402Z,1.00
2023-01-08T12:50:35.076Z,0.73
2023-01-08T12:53:04.625Z,0.80
2023-01-08T12:55:40.423Z,0.90
2023-01-08T12:58:12.846Z,1.20
2023-01-08T13:00:44.386Z,1.20
2023-01-08T13:03:13.181Z,0.90
2023-01-08T13:05:40.338Z,1.20
2023-01-08T13:08:08.540Z,1.20
2023-01-08T13:10:37.410Z,0.87
2023-01-08T13:13:05.463Z,1.20
2023-01-08T13:15:33.471Z,1.10
2023-01-08T13:18:05.873Z,1.20
2023-01-08T13:20:33.097Z,1.00
2023-01-08T13:23:01.551Z,1.10
2023-01-08T13:25:33.029Z,1.10
2023-01-08T13:28:00.782Z,0.90
2023-01-08T13:30:38.480Z,0.70
2023-01-08T13:33:20.532Z,1.07
2023-01-08T13:35:49.008Z,0.90
2023-01-08T13:38:16.990Z,0.80
2023-01-08T13:40:53.204Z,1.00
2023-01-08T13:43:21.915Z,0.90
2023-01-08T13:45:54.549Z,1.07
2023-01-08T13:48:22.655Z,0.73
2023-01-08T13:50:51.583Z,0.93
2023-01-08T13:53:19.216Z,0.87
2023-01-08T13:55:52.940Z,1.10
2023-01-08T13:58:21.987Z,0.90
2023-01-08T14:00:50.957Z,1.13
2023-01-08T14:03:24.902Z,1.00
2023-01-08T14:05:53.681Z,1.00
2023-01-08T14:08:24.212Z,0.83
2023-01-08T14:10:51.531Z,0.97
2023-01-08T14:13:19.276Z,0.83
2023-01-08T14:15:46.986Z,1.00
2023-01-08T14:18:14.588Z,0.90
2023-01-08T14:20:43.611Z,0.80
2023-01-08T14:23:13.775Z,0.87
2023-01-08T14:25:41.115Z,1.27
2023-01-08T14:28:16.379Z,1.27
2023-01-08T14:30:48.024Z,1.00
2023-01-08T14:33:15.498Z,1.00
2023-01-08T14:35:42.880Z,0.70
2023-01-08T14:38:13.763Z,1.30
2023-01-08T14:40:42.887Z,0.80
2023-01-08T14:43:10.732Z,0.80
2023-01-08T14:45:38.832Z,0.90
2023-01-08T14:48:10.818Z,1.10
2023-01-08T14:50:40.245Z,1.10
2023-01-08T14:53:08.226Z,1.30
2023-01-08T14:55:37.649Z,1.10
2023-01-08T14:58:10.599Z,1.20
2023-01-08T15:00:38.342Z,1.10
2023-01-08T15:03:06.335Z,0.90
2023-01-08T15:05:33.882Z,1.03
2023-01-08T15:08:02.293Z,1.10
2023-01-08T15:10:34.185Z,1.00
2023-01-08T15:13:02.911Z,0.83
2023-01-08T15:15:30.727Z,1.00
2023-01-08T15:17:58.033Z,0.90
2023-01-08T15:20:27.787Z,0.90
2023-01-08T15:22:54.935Z,0.87
2023-01-08T15:25:25.383Z,1.20
2023-01-08T15:27:54.651Z,1.10
2023-01-08T15:30:27.185Z,0.80
2023-01-08T15:32:55.356Z,1.07
2023-01-08T15:35:22.477Z,1.00
2023-01-08T15:37:49.597Z,0.90
2023-01-08T15:40:16.690Z,1.10
2023-01-08T15:42:44.203Z,1.10
2023-01-08T15:45:13.304Z,1.30
2023-01-08T15:47:41.764Z,1.30
2023-01-08T15:50:09.834Z,1.10
2023-01-08T15:52:37.752Z,1.30
2023-01-08T15:55:05.250Z,1.20
2023-01-08T15:57:32.471Z,1.10
2023-01-08T15:59:59.715Z,1.00
2023-01-08T16:02:26.922Z,1.57
2023-01-08T16:04:56.052Z,0.93
2023-01-08T16:07:23.442Z,1.13
2023-01-08T16:09:50.546Z,1.10
2023-01-08T16:12:17.692Z,1.10
2023-01-08T16:14:44.804Z,1.50
2023-01-08T16:17:11.963Z,1.30
2023-01-08T16:19:39.051Z,1.10
2023-01-08T16:22:07.552Z,1.40
2023-01-08T16:24:34.724Z,1.30
2023-01-08T16:27:01.831Z,1.37
2023-01-08T16:29:28.949Z,1.13
2023-01-08T16:31:56.081Z,0.83
2023-01-08T16:34:23.276Z,0.90
2023-01-08T16:36:50.382Z,1.20
2023-01-08T16:39:18.825Z,1.10
2023-01-08T16:41:47.578Z,1.60
2023-01-08T16:44:18.779Z,1.40
2023-01-08T16:46:45.940Z,1.40
2023-01-08T16:49:13.076Z,0.93
2023-01-08T16:51:40.446Z,1.20
2023-01-08T16:54:07.899Z,1.30
2023-01-08T16:56:36.358Z,1.50
2023-01-08T16:59:09.185Z,1.50
2023-01-08T17:01:36.532Z,1.20
2023-01-08T17:04:03.979Z,1.13
2023-01-08T17:06:31.361Z,1.30
2023-01-08T17:08:59.094Z,2.30
2023-01-08T17:11:26.292Z,2.43
2023-01-08T17:13:54.776Z,1.93
2023-01-08T17:16:21.984Z,2.97
2023-01-08T17:18:49.195Z,2.67
2023-01-08T17:21:16.321Z,2.00
2023-01-08T17:23:43.437Z,2.23
2023-01-08T17:26:11.323Z,1.70
2023-01-08T17:28:38.688Z,1.10
2023-01-08T17:31:08.861Z,1.20
2023-01-08T17:33:36.274Z,1.20
2023-01-08T17:36:09.630Z,1.63
2023-01-08T17:38:36.741Z,1.10
2023-01-08T17:41:03.972Z,0.90
2023-01-08T17:43:34.175Z,1.00
2023-01-08T17:46:02.104Z,1.10
2023-01-08T17:48:30.640Z,0.90
2023-01-08T17:50:57.768Z,1.30
2023-01-08T17:53:24.900Z,1.10
2023-01-08T17:55:52.007Z,1.10
2023-01-08T17:58:19.129Z,1.10
2023-01-08T18:00:46.319Z,1.10
2023-01-08T18:03:13.460Z,1.43
2023-01-08T18:05:41.925Z,1.60
2023-01-08T18:08:09.066Z,1.30
2023-01-08T18:10:37.473Z,1.70
2023-01-08T18:13:04.592Z,1.60
2023-01-08T18:15:32.934Z,1.40
2023-01-08T18:18:00.070Z,1.80
2023-01-08T18:20:27.336Z,1.53
2023-01-08T18:22:55.930Z,1.90
2023-01-08T18:25:23.067Z,1.30
2023-01-08T18:27:50.154Z,1.80
2023-01-08T18:30:17.465Z,1.40
2023-01-08T18:32:44.568Z,1.50
2023-01-08T18:35:11.699Z,1.23
2023-01-08T18:37:38.805Z,1.50
2023-01-08T18:40:07.893Z,1.40
2023-01-08T18:42:35.020Z,1.10
2023-01-08T18:45:02.111Z,1.60
2023-01-08T18:47:29.278Z,1.70
2023-01-08T18:49:56.969Z,1.73
2023-01-08T18:52:24.077Z,1.30
2023-01-08T18:54:51.260Z,2.07
2023-01-08T18:57:19.758Z,1.70
2023-01-08T18:59:48.413Z,1.37
2023-01-08T19:02:17.815Z,1.20
2023-01-08T19:04:45.030Z,1.27
2023-01-08T19:07:12.112Z,1.50
2023-01-08T19:09:39.256Z,1.70
2023-01-08T19:12:06.797Z,1.40
2023-01-08T19:14:35.302Z,1.37
2023-01-08T19:17:02.417Z,1.83
2023-01-08T19:19:29.539Z,1.77
2023-01-08T19:21:56.872Z,2.00
2023-01-08T19:24:24.121Z,1.70
2023-01-08T19:26:51.381Z,1.93
2023-01-08T19:29:18.709Z,2.03
2023-01-08T19:31:47.407Z,1.60
2023-01-08T19:34:14.540Z,1.90
2023-01-08T19:36:43.688Z,2.10
2023-01-08T19:39:10.963Z,2.00
2023-01-08T19:41:38.134Z,1.80
2023-01-08T19:44:05.465Z,1.53
2023-01-08T19:46:32.597Z,2.20
2023-01-08T19:49:01.995Z,1.80
2023-01-08T19:51:31.986Z,2.20
2023-01-08T19:53:59.420Z,3.00
2023-01-08T19:56:26.517Z,2.97
2023-01-08T19:58:53.612Z,1.93
2023-01-08T20:01:22.043Z,1.83
2023-01-08T20:03:49.240Z,2.10
2023-01-08T20:06:19.613Z,2.17
2023-01-08T20:08:46.747Z,2.50
2023-01-08T20:11:14.497Z,2.20
2023-01-08T20:13:41.875Z,2.00
2023-01-08T20:16:09.757Z,2.37
2023-01-08T20:18:37.101Z,2.40
2023-01-08T20:21:05.014Z,2.13
2023-01-08T20:23:33.652Z,2.00
2023-01-08T20:26:01.608Z,2.67
2023-01-08T20:28:28.774Z,1.93
2023-01-08T20:30:55.891Z,2.20
2023-01-08T20:33:23.214Z,2.07
2023-01-08T20:35:50.295Z,2.57
2023-01-08T20:38:17.417Z,2.80
2023-01-08T20:40:45.842Z,2.60
2023-01-08T20:43:12.934Z,1.80
2023-01-08T20:45:40.550Z,2.43
2023-01-08T20:48:07.853Z,2.30
2023-01-08T20:50:34.965Z,2.67
2023-01-08T20:53:02.077Z,2.53
2023-01-08T20:55:29.211Z,2.67
2023-01-08T20:57:57.684Z,1.90
2023-01-08T21:00:24.903Z,2.27
2023-01-08T21:02:52.010Z,2.10
2023-01-08T21:05:19.132Z,2.30
2023-01-08T21:07:46.228Z,2.13
2023-01-08T21:10:13.353Z,2.00
2023-01-08T21:12:40.456Z,1.90
2023-01-08T21:15:09.429Z,2.20
2023-01-08T21:17:36.546Z,2.17
2023-01-08T21:20:04.008Z,1.93
2023-01-08T21:22:31.131Z,1.70
2023-01-08T21:24:58.202Z,2.00
2023-01-08T21:27:25.306Z,1.50
2023-01-08T21:29:52.415Z,1.77
2023-01-08T21:32:20.950Z,2.30
2023-01-08T21:34:48.076Z,1.87
2023-01-08T21:37:15.160Z,1.57
2023-01-08T21:39:42.302Z,1.90
2023-01-08T21:42:10.139Z,1.80
2023-01-08T21:44:37.306Z,1.20
2023-01-08T21:47:05.415Z,2.03
2023-01-08T21:49:33.929Z,2.07
2023-01-08T21:52:01.053Z,1.43
2023-01-08T21:54:28.153Z,1.60
2023-01-08T21:56:55.267Z,1.30
2023-01-08T21:59:22.419Z,2.20
2023-01-08T22:01:49.568Z,1.73
2023-01-08T22:04:16.744Z,1.70
2023-01-08T22:06:45.269Z,2.10
2023-01-08T22:09:12.371Z,2.23
2023-01-08T22:11:39.526Z,1.57
2023-01-08T22:14:06.623Z,1.67
2023-01-08T22:16:33.797Z,1.40
2023-01-08T22:19:00.912Z,1.80
2023-01-08T22:21:28.047Z,1.60
2023-01-08T22:23:57.295Z,1.73
2023-01-08T22:26:24.704Z,1.80
2023-01-08T22:28:51.835Z,1.70
2023-01-08T22:31:18.933Z,1.83
2023-01-08T22:33:46.084Z,2.07
2023-01-08T22:36:14.077Z,1.50
2023-01-08T22:38:41.257Z,1.90
2023-01-08T22:41:14.521Z,2.00
2023-01-08T22:43:41.659Z,1.83
2023-01-08T22:46:12.291Z,2.20
2023-01-08T22:48:39.427Z,1.97
2023-01-08T22:51:06.543Z,2.07
2023-01-08T22:53:33.680Z,1.90
2023-01-08T22:56:00.794Z,1.90
2023-01-08T22:58:29.321Z,2.03
2023-01-08T23:00:56.492Z,2.33
2023-01-08T23:03:23.600Z,1.90
2023-01-08T23:05:50.703Z,1.63
2023-01-08T23:08:17.818Z,2.00
2023-01-08T23:10:45.069Z,2.40
2023-01-08T23:13:12.163Z,2.20
2023-01-08T23:15:40.644Z,2.40
2023-01-08T23:18:07.757Z,2.50
2023-01-08T23:20:34.868Z,2.40
2023-01-08T23:23:02.016Z,2.23
2023-01-08T23:25:29.146Z,2.83
2023-01-08T23:27:56.232Z,2.80
2023-01-08T23:30:23.391Z,2.87
2023-01-08T23:32:52.241Z,2.80
2023-01-08T23:35:19.385Z,2.83
2023-01-08T23:37:46.494Z,1.97
2023-01-08T23:40:13.970Z,2.60
2023-01-08T23:42:41.121Z,2.43
2023-01-08T23:45:11.152Z,2.40
2023-01-08T23:47:38.375Z,2.50
2023-01-08T23:50:07.694Z,1.77
2023-01-08T23:52:34.904Z,1.30
2023-01-08T23:55:02.028Z,1.60
2023-01-08T23:57:29.127Z,1.23
2023-01-08T23:59:56.634Z,1.27
